Time;durP1;ratioP1;P1;durP2;ratioP2;P2;SDS_P1;SDS_P2;PMS_P1;PMS_P2;Temp;Humidity;BMP_temperature;BMP_pressure;BME280_temperature;BME280_humidity;BME280_pressure;Samples;Min_cycle;Max_cycle;Signal;HPM_P1;HPM_P2
2020/12/16 00:00:51;;;;;;;20.50;7.67;;;;;;;;;;5073785;28;20145;-79
2020/12/16 00:03:16;;;;;;;13.30;8.53;;;;;;;;;;5071352;28;20356;-80
2020/12/16 00:05:41;;;;;;;16.13;9.47;;;;;;;;;;5072230;28;20017;-79
2020/12/16 00:08:06;;;;;;;14.33;9.00;;;;;;;;;;5073265;28;20153;-80
2020/12/16 00:10:32;;;;;;;12.90;9.37;;;;;;;;;;5072210;28;20028;-79
2020/12/16 00:12:57;;;;;;;22.10;12.23;;;;;;;;;;5073448;28;20420;-80
2020/12/16 00:15:22;;;;;;;21.17;11.53;;;;;;;;;;5071998;28;20111;-80
2020/12/16 00:17:48;;;;;;;26.27;13.27;;;;;;;;;;5073430;28;20021;-80
2020/12/16 00:20:13;;;;;;;20.90;11.80;;;;;;;;;;5072262;28;20025;-80
2020/12/16 00:22:39;;;;;;;22.00;12.57;;;;;;;;;;5071832;28;20421;-80
2020/12/16 00:25:05;;;;;;;27.67;12.87;;;;;;;;;;5071885;28;20028;-80
2020/12/16 00:27:30;;;;;;;22.00;11.20;;;;;;;;;;5071795;28;20021;-80
2020/12/16 00:29:56;;;;;;;23.70;9.67;;;;;;;;;;5071326;28;20020;-80
2020/12/16 00:32:21;;;;;;;26.00;9.03;;;;;;;;;;5053687;28;20029;-79
2020/12/16 00:34:46;;;;;;;18.03;10.70;;;;;;;;;;5073439;28;20376;-79
2020/12/16 00:37:11;;;;;;;18.40;9.50;;;;;;;;;;5073046;28;20044;-80
2020/12/16 00:39:36;;;;;;;17.57;9.23;;;;;;;;;;5072734;28;20016;-80
2020/12/16 00:42:05;;;;;;;20.00;11.00;;;;;;;;;;5072516;28;20031;-80
2020/12/16 00:44:31;;;;;;;20.17;11.30;;;;;;;;;;5071462;28;20032;-80
2020/12/16 00:46:56;;;;;;;19.37;11.80;;;;;;;;;;5072700;28;20024;-80
2020/12/16 00:49:21;;;;;;;19.80;11.30;;;;;;;;;;5071269;28;20372;-80
2020/12/16 00:51:50;;;;;;;20.97;11.10;;;;;;;;;;5072818;28;20088;-80
2020/12/16 00:54:15;;;;;;;23.87;10.83;;;;;;;;;;5071204;28;20029;-80
2020/12/16 00:56:42;;;;;;;24.67;10.20;;;;;;;;;;5071247;28;20023;-80
2020/12/16 00:59:07;;;;;;;26.75;11.48;;;;;;;;;;5071350;28;20024;-80
2020/12/16 01:01:32;;;;;;;24.67;11.88;;;;;;;;;;5072781;28;20027;-80
2020/12/16 01:03:57;;;;;;;17.30;10.13;;;;;;;;;;5072287;28;20059;-80
2020/12/16 01:06:23;;;;;;;24.67;11.13;;;;;;;;;;5072536;28;20104;-80
2020/12/16 01:08:48;;;;;;;31.98;11.85;;;;;;;;;;5071133;28;20498;-80
2020/12/16 01:11:13;;;;;;;32.35;11.18;;;;;;;;;;5072414;28;20054;-80
2020/12/16 01:13:38;;;;;;;23.35;10.65;;;;;;;;;;5072098;28;20026;-80
2020/12/16 01:16:03;;;;;;;27.90;10.70;;;;;;;;;;5070961;28;20054;-80
2020/12/16 01:18:29;;;;;;;30.05;11.43;;;;;;;;;;5071076;28;20017;-80
2020/12/16 01:20:54;;;;;;;34.22;12.40;;;;;;;;;;5072461;28;20040;-80
2020/12/16 01:23:19;;;;;;;34.97;12.25;;;;;;;;;;5072417;28;20047;-80
2020/12/16 01:25:44;;;;;;;50.70;13.67;;;;;;;;;;5071082;28;20429;-80
2020/12/16 01:28:10;;;;;;;36.47;12.93;;;;;;;;;;5072607;28;20021;-79
2020/12/16 01:30:35;;;;;;;42.40;14.77;;;;;;;;;;5072996;28;20048;-80
2020/12/16 01:33:00;;;;;;;56.03;15.80;;;;;;;;;;5071892;28;20050;-80
2020/12/16 01:35:26;;;;;;;35.30;15.23;;;;;;;;;;5072592;28;20013;-80
2020/12/16 01:37:52;;;;;;;48.23;16.27;;;;;;;;;;5066475;28;20028;-79
2020/12/16 01:40:17;;;;;;;43.63;16.23;;;;;;;;;;5068514;28;20020;-79
2020/12/16 01:42:42;;;;;;;42.20;15.80;;;;;;;;;;5069314;28;20383;-80
2020/12/16 01:45:09;;;;;;;38.20;16.03;;;;;;;;;;5070961;28;20024;-79
2020/12/16 01:47:35;;;;;;;39.20;15.00;;;;;;;;;;5068967;28;20020;-80
2020/12/16 01:50:00;;;;;;;35.20;14.87;;;;;;;;;;5070518;28;20016;-80
2020/12/16 01:52:26;;;;;;;46.27;17.67;;;;;;;;;;5070392;28;20046;-79
2020/12/16 01:54:53;;;;;;;37.57;16.57;;;;;;;;;;5069011;28;20052;-80
2020/12/16 01:57:19;;;;;;;53.27;17.63;;;;;;;;;;5069536;28;20444;-79
2020/12/16 01:59:45;;;;;;;46.77;18.57;;;;;;;;;;5069679;28;20044;-80
2020/12/16 02:02:11;;;;;;;52.07;18.23;;;;;;;;;;5069158;28;20017;-80
2020/12/16 02:04:41;;;;;;;51.03;16.97;;;;;;;;;;5070859;28;20100;-80
2020/12/16 02:07:07;;;;;;;58.73;17.80;;;;;;;;;;5070477;28;20048;-80
2020/12/16 02:09:43;;;;;;;60.77;17.73;;;;;;;;;;5069550;28;20028;-79
2020/12/16 02:12:13;;;;;;;47.03;17.60;;;;;;;;;;5068677;28;20027;-80
2020/12/16 02:14:38;;;;;;;65.37;16.80;;;;;;;;;;5071841;28;20426;-80
2020/12/16 02:17:05;;;;;;;61.43;17.07;;;;;;;;;;5071682;28;20016;-80
2020/12/16 02:19:32;;;;;;;61.20;15.30;;;;;;;;;;5071874;28;20012;-80
2020/12/16 02:21:57;;;;;;;75.23;16.43;;;;;;;;;;5070086;28;20036;-79
2020/12/16 02:24:23;;;;;;;52.37;15.30;;;;;;;;;;5070174;28;20379;-80
2020/12/16 02:26:48;;;;;;;53.60;15.07;;;;;;;;;;5072709;28;20511;-80
2020/12/16 02:29:14;;;;;;;43.60;13.48;;;;;;;;;;5073956;28;20498;-80
2020/12/16 02:31:40;;;;;;;45.80;11.57;;;;;;;;;;5075470;28;20035;-80
2020/12/16 02:34:06;;;;;;;27.75;10.30;;;;;;;;;;5075334;28;20126;-80
2020/12/16 02:36:31;;;;;;;52.33;12.30;;;;;;;;;;5074248;28;20028;-80
2020/12/16 02:38:56;;;;;;;39.20;13.50;;;;;;;;;;5074178;28;20025;-79
2020/12/16 02:41:22;;;;;;;47.20;12.57;;;;;;;;;;5075433;28;20149;-80
2020/12/16 02:43:47;;;;;;;40.57;11.83;;;;;;;;;;5075283;28;20016;-79
2020/12/16 02:46:13;;;;;;;46.60;12.57;;;;;;;;;;5075020;28;20112;-80
2020/12/16 02:48:38;;;;;;;38.00;13.13;;;;;;;;;;5075268;28;20035;-79
2020/12/16 02:51:03;;;;;;;34.57;12.60;;;;;;;;;;5073945;28;20078;-80
2020/12/16 02:53:28;;;;;;;46.73;11.97;;;;;;;;;;5073847;28;20103;-80
2020/12/16 02:55:56;;;;;;;49.73;12.77;;;;;;;;;;5074111;28;20025;-79
2020/12/16 02:58:23;;;;;;;34.63;10.97;;;;;;;;;;5074992;28;20020;-80
2020/12/16 03:00:48;;;;;;;41.87;11.70;;;;;;;;;;5073825;28;20383;-80
2020/12/16 03:03:14;;;;;;;42.20;11.57;;;;;;;;;;5073487;28;20025;-80
2020/12/16 03:05:39;;;;;;;24.43;10.27;;;;;;;;;;5074500;28;20533;-79
2020/12/16 03:08:07;;;;;;;38.43;11.87;;;;;;;;;;5074728;28;20032;-79
2020/12/16 03:10:32;;;;;;;38.13;11.27;;;;;;;;;;5074964;28;20020;-79
2020/12/16 03:12:58;;;;;;;30.60;10.93;;;;;;;;;;5074702;28;20032;-79
2020/12/16 03:15:23;;;;;;;18.30;10.40;;;;;;;;;;5074735;28;20012;-80
2020/12/16 03:17:48;;;;;;;30.87;10.67;;;;;;;;;;5073289;28;20020;-80
2020/12/16 03:20:13;;;;;;;29.63;11.63;;;;;;;;;;5073305;28;20021;-80
2020/12/16 03:22:38;;;;;;;47.67;11.30;;;;;;;;;;5074577;28;20035;-79
2020/12/16 03:25:04;;;;;;;30.70;11.60;;;;;;;;;;5073433;28;20130;-80
2020/12/16 03:27:29;;;;;;;32.20;11.23;;;;;;;;;;5072976;28;20013;-79
2020/12/16 03:29:54;;;;;;;32.63;11.07;;;;;;;;;;5074638;28;20032;-80
2020/12/16 03:32:19;;;;;;;24.33;10.73;;;;;;;;;;5072680;28;20123;-80
2020/12/16 03:34:44;;;;;;;29.27;10.67;;;;;;;;;;5074235;28;20029;-79
2020/12/16 03:37:10;;;;;;;28.27;10.30;;;;;;;;;;5072861;28;20017;-79
2020/12/16 03:39:35;;;;;;;46.07;11.47;;;;;;;;;;5074360;28;20013;-80
2020/12/16 03:42:00;;;;;;;24.50;10.03;;;;;;;;;;5073802;28;20051;-79
2020/12/16 03:44:25;;;;;;;45.30;10.50;;;;;;;;;;5073961;28;20033;-80
2020/12/16 03:46:51;;;;;;;33.67;11.00;;;;;;;;;;5073934;28;20048;-79
2020/12/16 03:49:17;;;;;;;23.53;9.93;;;;;;;;;;5072875;28;20415;-79
2020/12/16 03:51:42;;;;;;;23.93;9.53;;;;;;;;;;5073973;28;20505;-79
2020/12/16 03:54:07;;;;;;;26.23;9.13;;;;;;;;;;5072746;28;20026;-80
2020/12/16 03:56:33;;;;;;;29.77;9.43;;;;;;;;;;5073707;28;20092;-79
2020/12/16 03:58:58;;;;;;;20.77;9.00;;;;;;;;;;5073743;28;20040;-79
2020/12/16 04:01:23;;;;;;;15.30;9.13;;;;;;;;;;5072772;28;20013;-79
2020/12/16 04:03:48;;;;;;;14.43;8.83;;;;;;;;;;5071301;28;20048;-79
2020/12/16 04:06:14;;;;;;;16.53;8.97;;;;;;;;;;5072588;28;20099;-79
2020/12/16 04:08:39;;;;;;;14.37;8.87;;;;;;;;;;5070934;28;20027;-80
2020/12/16 04:11:09;;;;;;;23.80;8.40;;;;;;;;;;5070591;28;20056;-80
2020/12/16 04:13:34;;;;;;;15.20;8.67;;;;;;;;;;5071236;28;20020;-79
2020/12/16 04:15:59;;;;;;;22.07;8.73;;;;;;;;;;5070504;28;20028;-79
2020/12/16 04:18:24;;;;;;;16.93;8.53;;;;;;;;;;5070448;28;20059;-79
2020/12/16 04:20:49;;;;;;;19.13;8.67;;;;;;;;;;5071650;28;20099;-79
2020/12/16 04:23:15;;;;;;;16.47;8.73;;;;;;;;;;5071505;28;20090;-79
2020/12/16 04:25:40;;;;;;;14.73;7.97;;;;;;;;;;5073286;28;20020;-79
2020/12/16 04:28:06;;;;;;;13.47;9.00;;;;;;;;;;5071819;28;20017;-80
2020/12/16 04:30:31;;;;;;;16.13;7.83;;;;;;;;;;5071575;28;20044;-80
2020/12/16 04:32:56;;;;;;;12.57;7.93;;;;;;;;;;5071610;28;20058;-79
2020/12/16 04:35:22;;;;;;;13.93;8.10;;;;;;;;;;5071838;28;20020;-80
2020/12/16 04:37:48;;;;;;;12.90;8.20;;;;;;;;;;5071439;28;20312;-79
2020/12/16 04:40:13;;;;;;;14.17;9.13;;;;;;;;;;5072866;28;20017;-79
2020/12/16 04:42:39;;;;;;;17.23;10.10;;;;;;;;;;5071246;28;20138;-79
2020/12/16 04:45:04;;;;;;;17.67;10.23;;;;;;;;;;5072914;28;20471;-79
2020/12/16 04:47:29;;;;;;;16.67;9.27;;;;;;;;;;5071066;28;20059;-79
2020/12/16 04:49:58;;;;;;;14.93;9.50;;;;;;;;;;5072272;28;20542;-79
2020/12/16 04:52:25;;;;;;;19.73;10.00;;;;;;;;;;5071370;28;20044;-80
2020/12/16 04:54:50;;;;;;;19.13;11.53;;;;;;;;;;5071082;28;20467;-79
2020/12/16 04:57:16;;;;;;;17.60;11.17;;;;;;;;;;5070828;28;20051;-80
2020/12/16 04:59:41;;;;;;;18.87;11.00;;;;;;;;;;5071380;28;20024;-79
2020/12/16 05:02:06;;;;;;;16.03;9.97;;;;;;;;;;5072143;28;20014;-79
2020/12/16 05:04:31;;;;;;;18.97;10.77;;;;;;;;;;5072676;28;20046;-79
2020/12/16 05:06:57;;;;;;;20.30;11.50;;;;;;;;;;5072152;28;20042;-79
2020/12/16 05:09:22;;;;;;;19.23;9.73;;;;;;;;;;5071285;28;20012;-79
2020/12/16 05:11:49;;;;;;;14.07;8.40;;;;;;;;;;5072099;28;20032;-79
2020/12/16 05:14:15;;;;;;;13.70;6.30;;;;;;;;;;5072233;28;20031;-80
2020/12/16 05:16:59;;;;;;;16.07;6.73;;;;;;;;;;5071291;28;20020;-79
2020/12/16 05:19:31;;;;;;;12.93;5.43;;;;;;;;;;5060528;28;20428;-79
2020/12/16 05:22:15;;;;;;;23.33;5.38;;;;;;;;;;5070771;28;20555;-79
2020/12/16 05:24:40;;;;;;;22.40;5.20;;;;;;;;;;5070919;28;20120;-79
2020/12/16 05:27:09;;;;;;;23.17;4.70;;;;;;;;;;5070684;28;20443;-79
2020/12/16 05:29:35;;;;;;;27.53;5.03;;;;;;;;;;5070903;28;20024;-79
2020/12/16 05:32:17;;;;;;;12.77;7.07;;;;;;;;;;5071811;28;20165;-79
2020/12/16 05:34:43;;;;;;;11.95;7.50;;;;;;;;;;5059946;28;20506;-79
2020/12/16 05:37:24;;;;;;;13.50;7.93;;;;;;;;;;5070543;28;20052;-79
2020/12/16 05:40:12;;;;;;;19.53;9.60;;;;;;;;;;5070713;28;20365;-79
2020/12/16 05:42:39;;;;;;;19.00;9.70;;;;;;;;;;5067541;28;20048;-79
2020/12/16 05:45:09;;;;;;;13.63;8.13;;;;;;;;;;5070574;28;20032;-79
2020/12/16 05:47:34;;;;;;;14.43;8.07;;;;;;;;;;5070565;28;20439;-80
2020/12/16 05:50:00;;;;;;;17.93;9.60;;;;;;;;;;5070572;28;20048;-79
2020/12/16 05:52:25;;;;;;;17.23;10.33;;;;;;;;;;5070590;28;20024;-80
2020/12/16 05:54:52;;;;;;;17.67;10.40;;;;;;;;;;5070099;28;20108;-79
2020/12/16 05:57:24;;;;;;;18.07;10.57;;;;;;;;;;5071951;28;20070;-79
2020/12/16 06:00:08;;;;;;;18.80;10.60;;;;;;;;;;5070463;28;20476;-79
2020/12/16 06:02:43;;;;;;;19.87;10.97;;;;;;;;;;5072551;28;20070;-79
2020/12/16 06:05:18;;;;;;;19.67;11.57;;;;;;;;;;5076146;28;20032;-80
2020/12/16 06:07:44;;;;;;;19.13;11.47;;;;;;;;;;5074339;28;20020;-79
2020/12/16 06:10:09;;;;;;;24.50;11.90;;;;;;;;;;5074216;28;20035;-80
2020/12/16 06:12:37;;;;;;;20.47;11.47;;;;;;;;;;5074012;28;20028;-79
2020/12/16 06:15:05;;;;;;;22.07;10.90;;;;;;;;;;5074331;28;20134;-79
2020/12/16 06:17:31;;;;;;;18.27;10.70;;;;;;;;;;5074287;28;20414;-80
2020/12/16 06:19:59;;;;;;;19.37;11.07;;;;;;;;;;5075322;28;20020;-79
2020/12/16 06:22:30;;;;;;;23.27;11.00;;;;;;;;;;5073605;28;20013;-79
2020/12/16 06:24:58;;;;;;;18.30;10.63;;;;;;;;;;5075457;28;20024;-79
2020/12/16 06:27:26;;;;;;;18.17;11.00;;;;;;;;;;5074071;28;20344;-80
2020/12/16 06:29:55;;;;;;;16.73;10.80;;;;;;;;;;5073776;28;20039;-79
2020/12/16 06:32:24;;;;;;;23.33;13.87;;;;;;;;;;5075025;28;20150;-79
2020/12/16 06:34:51;;;;;;;22.97;13.33;;;;;;;;;;5074266;28;20024;-79
2020/12/16 06:37:16;;;;;;;23.87;13.83;;;;;;;;;;5075085;28;20016;-80
2020/12/16 06:39:41;;;;;;;19.83;11.87;;;;;;;;;;5075363;28;20023;-79
2020/12/16 06:42:07;;;;;;;21.40;10.23;;;;;;;;;;5074050;28;20065;-80
2020/12/16 06:44:32;;;;;;;16.80;9.47;;;;;;;;;;5074871;28;20037;-80
2020/12/16 06:46:57;;;;;;;16.40;9.70;;;;;;;;;;5072375;28;20040;-80
2020/12/16 06:49:23;;;;;;;16.17;7.93;;;;;;;;;;5072708;28;20025;-80
2020/12/16 06:51:49;;;;;;;14.37;8.80;;;;;;;;;;5071564;28;20387;-80
2020/12/16 06:54:16;;;;;;;11.70;6.70;;;;;;;;;;5071827;28;20051;-80
2020/12/16 06:56:42;;;;;;;13.40;6.97;;;;;;;;;;5073133;28;20016;-80
2020/12/16 06:59:07;;;;;;;10.27;6.23;;;;;;;;;;5072268;28;20028;-80
2020/12/16 07:01:33;;;;;;;13.87;6.07;;;;;;;;;;5071751;28;20031;-80
2020/12/16 07:03:58;;;;;;;11.95;5.18;;;;;;;;;;5073083;28;20452;-80
2020/12/16 07:06:30;;;;;;;11.30;5.70;;;;;;;;;;5073070;28;20082;-80
2020/12/16 07:09:13;;;;;;;6.28;4.75;;;;;;;;;;5071906;28;20028;-80
2020/12/16 07:11:39;;;;;;;8.95;5.22;;;;;;;;;;5071666;28;20471;-80
2020/12/16 07:14:08;;;;;;;12.95;5.07;;;;;;;;;;5072217;28;20098;-80
2020/12/16 07:16:34;;;;;;;8.43;4.97;;;;;;;;;;5073085;28;20025;-80
2020/12/16 07:19:00;;;;;;;9.18;4.93;;;;;;;;;;5072883;28;20048;-80
2020/12/16 07:21:25;;;;;;;8.23;4.70;;;;;;;;;;5072835;28;20125;-80
2020/12/16 07:23:51;;;;;;;9.25;5.03;;;;;;;;;;5074091;28;20055;-79
2020/12/16 07:26:24;;;;;;;10.90;5.40;;;;;;;;;;5074001;28;20021;-80
2020/12/16 07:28:49;;;;;;;10.90;5.85;;;;;;;;;;5072972;28;20589;-80
2020/12/16 07:31:14;;;;;;;13.05;5.60;;;;;;;;;;5073929;28;20074;-79
2020/12/16 07:33:40;;;;;;;10.50;5.45;;;;;;;;;;5074109;28;20027;-80
2020/12/16 07:36:05;;;;;;;7.75;4.70;;;;;;;;;;5072768;28;20468;-80
2020/12/16 07:38:31;;;;;;;13.05;6.10;;;;;;;;;;5073277;28;20070;-79
2020/12/16 07:40:56;;;;;;;11.52;5.47;;;;;;;;;;5072242;28;20017;-80
2020/12/16 07:43:22;;;;;;;9.98;5.80;;;;;;;;;;5072484;28;20055;-80
2020/12/16 07:46:08;;;;;;;9.07;5.93;;;;;;;;;;5073420;28;20022;-80
2020/12/16 07:48:34;;;;;;;12.85;5.82;;;;;;;;;;5062089;28;20051;-80
2020/12/16 07:51:05;;;;;;;10.23;4.95;;;;;;;;;;5059847;28;20111;-80
2020/12/16 07:53:32;;;;;;;8.82;5.95;;;;;;;;;;5064524;28;20027;-80
2020/12/16 07:56:03;;;;;;;11.77;6.50;;;;;;;;;;5068023;28;20047;-80
2020/12/16 07:58:32;;;;;;;12.25;8.00;;;;;;;;;;5066633;28;20012;-79
2020/12/16 08:01:10;;;;;;;18.47;10.20;;;;;;;;;;5062084;28;20491;-79
2020/12/16 08:03:36;;;;;;;14.60;9.33;;;;;;;;;;5057249;28;20032;-79
2020/12/16 08:06:02;;;;;;;12.03;7.53;;;;;;;;;;5063473;28;20028;-79
2020/12/16 08:08:27;;;;;;;17.23;9.20;;;;;;;;;;5060205;28;20021;-79
2020/12/16 08:10:52;;;;;;;15.13;9.20;;;;;;;;;;5069997;28;20324;-79
2020/12/16 08:13:27;;;;;;;14.97;7.80;;;;;;;;;;5072894;28;20031;-78
2020/12/16 08:16:03;;;;;;;11.17;6.37;;;;;;;;;;5067674;28;20127;-79
2020/12/16 08:18:28;;;;;;;11.33;6.10;;;;;;;;;;5064846;28;20017;-79
2020/12/16 08:20:53;;;;;;;11.00;5.93;;;;;;;;;;5062597;28;20024;-79
2020/12/16 08:23:19;;;;;;;8.35;4.93;;;;;;;;;;5064516;28;20021;-79
2020/12/16 08:25:44;;;;;;;9.48;5.70;;;;;;;;;;5070124;28;20114;-78
2020/12/16 08:28:09;;;;;;;8.93;5.47;;;;;;;;;;5072225;28;20028;-78
2020/12/16 08:30:37;;;;;;;8.88;4.90;;;;;;;;;;5072831;28;20032;-80
2020/12/16 08:33:06;;;;;;;7.82;4.82;;;;;;;;;;5063809;28;20028;-79
2020/12/16 08:35:32;;;;;;;13.57;5.38;;;;;;;;;;5071093;28;20455;-80
2020/12/16 08:38:03;;;;;;;9.50;5.70;;;;;;;;;;5070531;28;20047;-79
2020/12/16 08:40:28;;;;;;;9.90;5.68;;;;;;;;;;5069474;28;20020;-79
2020/12/16 08:42:53;;;;;;;10.07;5.78;;;;;;;;;;5070500;28;20070;-79
2020/12/16 08:45:20;;;;;;;9.77;6.05;;;;;;;;;;5068088;28;20483;-78
2020/12/16 08:47:46;;;;;;;11.60;6.00;;;;;;;;;;5068470;28;20046;-79
2020/12/16 08:50:12;;;;;;;15.30;6.90;;;;;;;;;;5069508;28;20009;-79
2020/12/16 08:52:38;;;;;;;10.18;6.20;;;;;;;;;;5070082;28;20760;-79
2020/12/16 08:55:14;;;;;;;12.37;6.90;;;;;;;;;;5069563;28;20023;-79
2020/12/16 08:57:48;;;;;;;13.80;7.47;;;;;;;;;;5071138;28;20016;-79
2020/12/16 09:00:13;;;;;;;15.43;7.27;;;;;;;;;;5066881;28;20021;-79
2020/12/16 09:02:39;;;;;;;12.70;7.60;;;;;;;;;;5056088;28;20024;-78
2020/12/16 09:05:04;;;;;;;10.50;5.85;;;;;;;;;;5061762;28;20025;-79
2020/12/16 09:07:29;;;;;;;9.32;5.68;;;;;;;;;;5059581;28;20021;-79
2020/12/16 09:09:55;;;;;;;10.30;6.30;;;;;;;;;;5056507;28;20025;-79
2020/12/16 09:12:21;;;;;;;14.70;7.05;;;;;;;;;;5062415;28;20025;-79
2020/12/16 09:14:51;;;;;;;12.40;6.45;;;;;;;;;;5062902;28;20024;-80
2020/12/16 09:17:16;;;;;;;10.50;6.13;;;;;;;;;;5062477;28;20024;-78
2020/12/16 09:19:42;;;;;;;14.93;6.38;;;;;;;;;;5064423;28;20025;-80
2020/12/16 09:22:07;;;;;;;11.55;5.82;;;;;;;;;;5068231;28;20073;-78
2020/12/16 09:24:32;;;;;;;11.77;6.72;;;;;;;;;;5073166;28;20035;-79
2020/12/16 09:27:04;;;;;;;9.88;6.00;;;;;;;;;;5070843;28;20024;-79
2020/12/16 09:29:29;;;;;;;10.10;6.20;;;;;;;;;;5064673;28;20425;-79
2020/12/16 09:32:07;;;;;;;11.07;5.97;;;;;;;;;;5064756;28;20226;-79
2020/12/16 09:34:36;;;;;;;11.98;6.15;;;;;;;;;;5066086;28;20021;-79
2020/12/16 09:37:12;;;;;;;10.30;6.57;;;;;;;;;;5063866;28;20426;-79
2020/12/16 09:39:37;;;;;;;12.35;6.28;;;;;;;;;;5063315;28;20017;-78
2020/12/16 09:42:07;;;;;;;14.00;6.68;;;;;;;;;;5066012;28;20019;-78
2020/12/16 09:44:33;;;;;;;12.38;6.50;;;;;;;;;;5057266;28;20029;-79
2020/12/16 09:47:15;;;;;;;10.50;6.47;;;;;;;;;;5062213;28;20361;-79
2020/12/16 09:49:40;;;;;;;16.25;6.63;;;;;;;;;;5061967;28;20502;-79
2020/12/16 09:52:22;;;;;;;18.33;7.20;;;;;;;;;;5052064;28;20032;-79
2020/12/16 09:54:47;;;;;;;15.18;7.95;;;;;;;;;;5044577;28;20060;-79
2020/12/16 09:57:12;;;;;;;11.90;7.20;;;;;;;;;;5060931;28;20052;-79
2020/12/16 09:59:38;;;;;;;13.23;7.03;;;;;;;;;;5060971;28;20367;-79
2020/12/16 10:02:03;;;;;;;11.40;5.97;;;;;;;;;;5068507;28;20019;-79
2020/12/16 10:04:29;;;;;;;16.40;6.95;;;;;;;;;;5059917;28;20059;-79
2020/12/16 10:06:54;;;;;;;12.25;6.78;;;;;;;;;;5066716;28;20017;-79
2020/12/16 10:09:19;;;;;;;11.57;6.25;;;;;;;;;;5064000;28;20025;-79
2020/12/16 10:11:48;;;;;;;11.20;5.63;;;;;;;;;;5068821;28;20447;-79
2020/12/16 10:14:17;;;;;;;11.75;6.45;;;;;;;;;;5062777;28;20492;-80
2020/12/16 10:16:43;;;;;;;10.25;5.20;;;;;;;;;;5061252;28;20017;-80
2020/12/16 10:19:08;;;;;;;14.18;7.35;;;;;;;;;;5059041;28;20021;-80
2020/12/16 10:21:33;;;;;;;15.63;7.35;;;;;;;;;;5054095;28;20021;-79
2020/12/16 10:23:58;;;;;;;14.80;7.20;;;;;;;;;;5068178;28;20044;-78
2020/12/16 10:26:24;;;;;;;11.80;6.70;;;;;;;;;;5061256;28;20024;-79
2020/12/16 10:28:49;;;;;;;15.52;8.32;;;;;;;;;;5057596;28;20468;-79
2020/12/16 10:31:14;;;;;;;15.63;8.10;;;;;;;;;;5059984;28;20027;-78
2020/12/16 10:33:39;;;;;;;12.15;6.45;;;;;;;;;;5049859;28;20102;-79
2020/12/16 10:36:04;;;;;;;10.82;5.63;;;;;;;;;;5060301;28;20031;-79
2020/12/16 10:38:29;;;;;;;11.52;7.10;;;;;;;;;;5058276;28;20443;-79
2020/12/16 10:40:55;;;;;;;13.40;7.10;;;;;;;;;;5059589;28;20013;-79
2020/12/16 10:43:20;;;;;;;15.32;7.70;;;;;;;;;;5055528;28;20013;-79
2020/12/16 10:45:45;;;;;;;16.73;7.18;;;;;;;;;;5054373;28;20078;-79
2020/12/16 10:48:10;;;;;;;17.35;8.10;;;;;;;;;;5069209;28;20384;-79
2020/12/16 10:50:35;;;;;;;17.23;8.25;;;;;;;;;;5060652;28;20036;-79
2020/12/16 10:53:01;;;;;;;16.77;8.02;;;;;;;;;;5060023;28;20040;-79
2020/12/16 10:55:26;;;;;;;15.00;6.38;;;;;;;;;;5064715;28;20107;-79
2020/12/16 10:57:52;;;;;;;12.23;6.28;;;;;;;;;;5063865;28;20066;-80
2020/12/16 11:00:17;;;;;;;13.25;6.45;;;;;;;;;;5073399;28;20079;-80
2020/12/16 11:02:42;;;;;;;11.45;6.22;;;;;;;;;;5061742;28;20035;-80
2020/12/16 11:05:07;;;;;;;11.68;5.57;;;;;;;;;;5063459;28;20064;-80
2020/12/16 11:07:48;;;;;;;11.43;6.03;;;;;;;;;;5050399;28;20081;-79
2020/12/16 11:10:13;;;;;;;10.77;5.82;;;;;;;;;;5063040;28;20432;-80
2020/12/16 11:12:38;;;;;;;11.90;6.25;;;;;;;;;;5068361;28;20115;-80
2020/12/16 11:15:03;;;;;;;10.70;6.18;;;;;;;;;;5059344;28;20082;-80
2020/12/16 11:17:29;;;;;;;12.65;6.82;;;;;;;;;;5065097;28;20349;-80
2020/12/16 11:19:54;;;;;;;11.63;6.03;;;;;;;;;;5060558;28;20095;-80
2020/12/16 11:22:20;;;;;;;12.07;6.53;;;;;;;;;;5064341;28;20473;-80
2020/12/16 11:24:45;;;;;;;13.57;6.03;;;;;;;;;;5061320;28;20025;-80
2020/12/16 11:27:11;;;;;;;15.88;7.28;;;;;;;;;;5065758;28;20395;-80
2020/12/16 11:29:36;;;;;;;11.15;5.68;;;;;;;;;;5069195;28;20027;-80
2020/12/16 11:32:01;;;;;;;15.18;7.13;;;;;;;;;;5058847;28;20037;-80
2020/12/16 11:34:27;;;;;;;12.55;7.00;;;;;;;;;;5064496;28;20032;-80
2020/12/16 11:36:54;;;;;;;10.57;5.50;;;;;;;;;;5060586;28;20043;-80
2020/12/16 11:39:20;;;;;;;11.27;6.47;;;;;;;;;;5064316;28;20005;-80
2020/12/16 11:41:46;;;;;;;13.50;7.18;;;;;;;;;;5060821;28;20047;-80
2020/12/16 11:44:12;;;;;;;13.93;7.13;;;;;;;;;;5066455;28;20028;-80
2020/12/16 11:46:37;;;;;;;12.90;6.38;;;;;;;;;;5065863;28;20409;-80
2020/12/16 11:49:03;;;;;;;13.10;6.03;;;;;;;;;;5073505;28;20107;-80
2020/12/16 11:51:28;;;;;;;11.90;6.18;;;;;;;;;;5073180;28;20047;-80
2020/12/16 11:53:54;;;;;;;10.35;6.10;;;;;;;;;;5072034;28;20024;-79
2020/12/16 11:56:19;;;;;;;12.88;6.55;;;;;;;;;;5071869;28;20025;-80
2020/12/16 11:58:45;;;;;;;11.80;6.90;;;;;;;;;;5079383;28;20020;-80
2020/12/16 12:01:11;;;;;;;14.73;7.20;;;;;;;;;;5074100;28;20051;-79
2020/12/16 12:03:36;;;;;;;11.75;6.68;;;;;;;;;;5077846;28;20035;-80
2020/12/16 12:06:01;;;;;;;17.73;8.60;;;;;;;;;;5071221;28;20021;-80
2020/12/16 12:08:27;;;;;;;17.45;8.80;;;;;;;;;;5074158;28;20020;-80
2020/12/16 12:10:52;;;;;;;16.63;9.02;;;;;;;;;;5065863;28;20388;-80
2020/12/16 12:13:17;;;;;;;14.35;6.85;;;;;;;;;;5060531;28;20463;-80
2020/12/16 12:15:43;;;;;;;15.50;8.55;;;;;;;;;;5061706;28;20092;-79
2020/12/16 12:18:08;;;;;;;13.73;8.30;;;;;;;;;;5069509;28;20115;-78
2020/12/16 12:20:33;;;;;;;13.07;7.68;;;;;;;;;;5070087;28;20804;-78
2020/12/16 12:22:58;;;;;;;13.50;7.03;;;;;;;;;;5060399;28;20013;-79
2020/12/16 12:25:24;;;;;;;15.05;8.27;;;;;;;;;;5069508;28;20052;-78
2020/12/16 12:27:49;;;;;;;16.75;8.82;;;;;;;;;;5074164;28;20028;-78
2020/12/16 12:30:14;;;;;;;14.02;8.40;;;;;;;;;;5071211;28;20460;-78
2020/12/16 12:32:40;;;;;;;14.40;8.32;;;;;;;;;;5070890;28;20024;-80
2020/12/16 12:35:05;;;;;;;12.73;7.43;;;;;;;;;;5063842;28;20053;-79
2020/12/16 12:37:31;;;;;;;15.45;8.13;;;;;;;;;;5063827;28;20844;-79
2020/12/16 12:39:56;;;;;;;12.10;6.82;;;;;;;;;;5064915;28;20013;-79
2020/12/16 12:42:21;;;;;;;12.82;7.10;;;;;;;;;;5062253;28;20039;-79
2020/12/16 12:44:46;;;;;;;16.05;7.10;;;;;;;;;;5063969;28;20016;-79
2020/12/16 12:47:11;;;;;;;17.90;7.97;;;;;;;;;;5063161;28;20138;-79
2020/12/16 12:49:37;;;;;;;18.92;7.63;;;;;;;;;;5066525;28;20020;-79
2020/12/16 12:52:02;;;;;;;16.25;8.07;;;;;;;;;;5070128;28;20020;-79
2020/12/16 12:54:28;;;;;;;11.80;5.88;;;;;;;;;;5055794;28;20472;-79
2020/12/16 12:56:53;;;;;;;15.20;6.95;;;;;;;;;;5062180;28;20040;-79
2020/12/16 12:59:18;;;;;;;17.83;7.40;;;;;;;;;;5059158;28;20025;-79
2020/12/16 13:01:47;;;;;;;11.05;6.15;;;;;;;;;;5062041;28;20047;-79
2020/12/16 13:04:13;;;;;;;12.10;6.32;;;;;;;;;;5065102;28;20017;-79
2020/12/16 13:06:38;;;;;;;18.17;7.20;;;;;;;;;;5060415;28;20143;-79
2020/12/16 13:09:03;;;;;;;9.35;5.10;;;;;;;;;;5058177;28;20031;-79
2020/12/16 13:11:28;;;;;;;13.25;7.28;;;;;;;;;;5064054;28;20345;-79
2020/12/16 13:13:53;;;;;;;9.90;5.55;;;;;;;;;;5064404;28;20015;-80
2020/12/16 13:16:19;;;;;;;8.75;5.38;;;;;;;;;;5058743;28;20020;-79
2020/12/16 13:18:44;;;;;;;9.73;5.72;;;;;;;;;;5066293;28;20142;-79
2020/12/16 13:21:11;;;;;;;8.43;4.93;;;;;;;;;;5069786;28;20019;-79
2020/12/16 13:23:36;;;;;;;12.77;5.25;;;;;;;;;;5061540;28;20373;-79
2020/12/16 13:26:02;;;;;;;8.45;4.80;;;;;;;;;;5067144;28;20020;-79
2020/12/16 13:28:27;;;;;;;10.60;5.07;;;;;;;;;;5066698;28;20051;-80
2020/12/16 13:30:52;;;;;;;8.95;4.82;;;;;;;;;;5067262;28;20158;-80
2020/12/16 13:33:17;;;;;;;8.35;4.63;;;;;;;;;;5065606;28;20012;-80
2020/12/16 13:35:43;;;;;;;9.23;4.72;;;;;;;;;;5061379;28;20373;-79
2020/12/16 13:38:08;;;;;;;9.07;5.10;;;;;;;;;;5069011;28;20375;-79
2020/12/16 13:40:33;;;;;;;8.05;4.78;;;;;;;;;;5068365;28;20009;-79
2020/12/16 13:42:58;;;;;;;10.93;5.15;;;;;;;;;;5062016;28;20376;-80
2020/12/16 13:45:24;;;;;;;8.82;4.47;;;;;;;;;;5054414;28;20013;-80
2020/12/16 13:47:49;;;;;;;10.65;5.50;;;;;;;;;;5057988;28;20350;-80
2020/12/16 13:50:14;;;;;;;13.45;5.22;;;;;;;;;;5061904;28;20024;-79
2020/12/16 13:52:40;;;;;;;9.70;4.75;;;;;;;;;;5069187;28;20025;-79
2020/12/16 13:55:06;;;;;;;9.70;5.00;;;;;;;;;;5069294;28;20047;-79
2020/12/16 13:57:31;;;;;;;9.35;5.03;;;;;;;;;;5069913;28;20031;-80
2020/12/16 13:59:56;;;;;;;8.70;4.32;;;;;;;;;;5071106;28;20103;-79
2020/12/16 14:02:21;;;;;;;9.38;4.53;;;;;;;;;;5069085;28;20464;-80
2020/12/16 14:04:46;;;;;;;7.57;4.32;;;;;;;;;;5071079;28;20017;-79
2020/12/16 14:07:12;;;;;;;9.38;4.57;;;;;;;;;;5068611;28;20463;-80
2020/12/16 14:09:37;;;;;;;10.00;4.90;;;;;;;;;;5061343;28;20021;-79
2020/12/16 14:12:02;;;;;;;8.68;4.60;;;;;;;;;;5068560;28;20460;-79
2020/12/16 14:14:29;;;;;;;9.60;5.13;;;;;;;;;;5068632;28;20023;-79
2020/12/16 14:16:54;;;;;;;9.45;5.45;;;;;;;;;;5058605;28;20077;-79
2020/12/16 14:19:19;;;;;;;9.23;4.22;;;;;;;;;;5071138;28;20012;-80
2020/12/16 14:21:44;;;;;;;7.70;4.35;;;;;;;;;;5058257;28;20492;-80
2020/12/16 14:24:11;;;;;;;9.27;5.00;;;;;;;;;;5063917;28;20013;-80